Flight Track Log - Related Links

Times and Time Zones

All times are in EDT time to prevent confusion due to time zone crossing. See the UAL4553 flight status page for this flight to view local times or setup timezone preferences in your user account.

Time Position Orientation Groundspeed Altitude Reporting Facility
EDT Latitude Longitude Course Direction KTS MPH feet Rate Location/Type
Mon 01:52:17 PM 34.9481 -82.2572 239° Southwest 265 305 4,700  Level Atlanta Center
Mon 01:53:17 PM 34.8842 -82.3194 219° Southwest 280 322 7,700 2,650 Climbing Atlanta Center
Mon 01:54:00 PM 34.6125 -82.5354 224° Southwest  Level FlightAware Approximate
Mon 01:54:17 PM 34.8225 -82.3814 220° Southwest 292 336 10,000  Level Atlanta Center
Mon 01:55:00 PM 34.5432 -82.6150 223° Southwest  Level FlightAware Approximate
Mon 01:55:17 PM 34.7544 -82.4511 220° Southwest 310 357 11,400  Level Atlanta Center
Mon 01:56:00 PM 34.4750 -82.6958 231° Southwest  Level FlightAware Approximate
Mon 01:56:17 PM 34.6844 -82.5231 220° Southwest 327 376 13,600  Level Atlanta Center
Mon 01:57:00 PM 34.4153 -82.7860 239° Southwest  Level FlightAware Approximate
Mon 01:57:17 PM 34.6244 -82.5797 218° Southwest 332 382 15,000  Level Atlanta Center
Mon 01:58:17 PM 34.5461 -82.6619 221° Southwest 341 392 16,700 1,450 Climbing Atlanta Center
Mon 01:59:17 PM 34.4697 -82.7361 219° Southwest 357 411 17,900 1,350 Climbing Atlanta Center
Mon 02:00:17 PM 34.4019 -82.8253 227° Southwest 357 411 19,400 1,400 Climbing Atlanta Center
Mon 02:01:17 PM 34.3528 -82.9267 240° Southwest 359 413 20,700 1,200 Climbing Atlanta Center
Mon 02:02:17 PM 34.3056 -83.0331 242° Southwest 364 419 21,800 1,250 Climbing Atlanta Center
Mon 02:03:17 PM 34.2522 -83.1442 240° Southwest 369 425 23,200 1,450 Climbing Atlanta Center
Mon 02:04:17 PM 34.1967 -83.2603 240° Southwest 374 430 24,700 1,550 Climbing Atlanta Center
Mon 02:05:17 PM 34.1472 -83.3636 240° Southwest 374 430 26,300 1,600 Climbing Atlanta Center
Mon 02:06:17 PM 34.0997 -83.4669 241° Southwest 365 420 27,900 1,550 Climbing Atlanta Center
Mon 02:07:17 PM 34.0500 -83.5650 239° Southwest 347 399 29,400 1,300 Climbing Atlanta Center
Mon 02:08:17 PM 34.0044 -83.6631 241° Southwest 347 399 30,500 1,100 Climbing Atlanta Center
Mon 02:09:17 PM 33.9567 -83.7608 240° Southwest 347 399 31,600 1,000 Climbing Atlanta Center
Mon 02:10:17 PM 33.9089 -83.8611 240° Southwest 347 399 32,500 950 Climbing Atlanta Center
Mon 02:11:17 PM 33.8506 -83.9564 234° Southwest 347 399 33,500 900 Climbing Atlanta Center
Mon 02:12:17 PM 33.7942 -84.0389 231° Southwest 357 411 34,300 850 Climbing Atlanta Center
Mon 02:13:17 PM 33.7336 -84.1311 232° Southwest 362 417 35,200 850 Climbing Atlanta Center
Mon 02:14:17 PM 33.6689 -84.2361 233° Southwest 362 417 36,000 400 Climbing Atlanta Center
Mon 02:15:17 PM 33.6019 -84.3281 229° Southwest 362 417 36,000  Level Atlanta Center
Mon 02:16:17 PM 33.5347 -84.4275 231° Southwest 375 432 36,000  Level Atlanta Center
Mon 02:17:17 PM 33.4656 -84.5294 231° Southwest 393 452 36,000  Level Atlanta Center
Mon 02:18:17 PM 33.3942 -84.6336 231° Southwest 403 464 36,000  Level Atlanta Center
Mon 02:19:17 PM 33.3247 -84.7375 231° Southwest 403 464 36,000  Level Atlanta Center
Mon 02:20:17 PM 33.2531 -84.8436 231° Southwest 408 470 36,000  Level Atlanta Center
Mon 02:21:17 PM 33.1794 -84.9497 230° Southwest 408 470 36,000  Level Atlanta Center
Mon 02:22:17 PM 33.1075 -85.0556 231° Southwest 415 478 36,000  Level Atlanta Center
Mon 02:23:17 PM 33.0442 -85.1467 230° Southwest 415 478 36,000  Level Atlanta Center
Mon 02:24:17 PM 32.9742 -85.2472 230° Southwest 410 472 36,000  Level Atlanta Center
Mon 02:25:17 PM 32.8961 -85.3450 226° Southwest 410 472 36,000  Level Atlanta Center
Mon 02:26:17 PM 32.8258 -85.4553 233° Southwest 410 472 36,000  Level Atlanta Center
Mon 02:27:17 PM 32.7558 -85.5578 231° Southwest 415 478 36,000  Level Atlanta Center
Mon 02:28:17 PM 32.6814 -85.6653 231° Southwest 415 478 36,000  Level Atlanta Center
Mon 02:29:17 PM 32.6092 -85.7697 231° Southwest 415 478 36,000  Level Atlanta Center
Mon 02:30:17 PM 32.5344 -85.8769 230° Southwest 415 478 36,000  Level Atlanta Center
Mon 02:31:17 PM 32.4514 -85.9883 229° Southwest 433 498 36,000  Level Atlanta Center
Mon 02:32:17 PM 32.3808 -86.0925 231° Southwest 433 498 36,000  Level Atlanta Center
Mon 02:33:17 PM 32.3058 -86.1989 230° Southwest 426 490 36,000  Level Atlanta Center
Mon 02:34:17 PM 32.2244 -86.3122 230° Southwest 421 484 36,000  Level Atlanta Center
Mon 02:35:17 PM 32.1642 -86.4114 234° Southwest 428 493 36,000  Level Atlanta Center
Mon 02:36:17 PM 32.0892 -86.5197 231° Southwest 422 486 36,000  Level Atlanta Center
Mon 02:37:17 PM 32.0097 -86.6253 228° Southwest 422 486 36,000  Level Atlanta Center
Mon 02:38:17 PM 31.9239 -86.7378 228° Southwest 422 486 36,000  Level Atlanta Center
Mon 02:39:17 PM 31.8464 -86.8431 229° Southwest 427 491 36,000  Level Atlanta Center
Mon 02:40:17 PM 31.7708 -86.9483 230° Southwest 427 491 36,000  Level Atlanta Center
Mon 02:42:02 PM 31.6417 -87.1219 229° Southwest 425 489 36,000  Level Houston Center
Mon 02:43:04 PM 31.5650 -87.2286 230° Southwest 427 491 36,000  Level Houston Center
Mon 02:44:06 PM 31.4878 -87.3339 229° Southwest 426 490 36,000  Level Houston Center
Mon 02:45:08 PM 31.3947 -87.4586 229° Southwest 425 489 36,000  Level Houston Center
Mon 02:46:11 PM 31.3181 -87.5647 230° Southwest 426 490 36,000  Level Houston Center
Mon 02:47:13 PM 31.2394 -87.6697 229° Southwest 428 493 36,000  Level Houston Center
Mon 02:48:15 PM 31.1589 -87.7764 229° Southwest 436 502 36,000  Level Houston Center
Mon 02:49:17 PM 31.0822 -87.8817 230° Southwest 431 496 36,000  Level Houston Center
Mon 02:50:19 PM 31.0042 -87.9881 229° Southwest 433 498 36,000  Level Houston Center
Mon 02:51:21 PM 30.9086 -88.1136 228° Southwest 433 498 36,000  Level Houston Center
Mon 02:52:23 PM 30.8297 -88.2189 229° Southwest 432 497 36,000  Level Houston Center
Mon 02:53:25 PM 30.7503 -88.3231 228° Southwest 430 495 36,000  Level Houston Center
Mon 02:54:28 PM 30.6925 -88.4500 242° Southwest 416 479 36,000  Level Houston Center
Mon 02:55:30 PM 30.6514 -88.5739 249° West 412 474 36,000  Level Houston Center
Mon 02:56:32 PM 30.6086 -88.6969 248° West 410 472 36,000  Level Houston Center
Mon 02:57:34 PM 30.5667 -88.8186 248° West 408 470 36,000  Level Houston Center
Mon 02:58:36 PM 30.5214 -88.9536 249° West 405 466 36,000  Level Houston Center
Mon 02:59:38 PM 30.4800 -89.0725 248° West 401 461 36,000  Level Houston Center
Mon 03:00:40 PM 30.4392 -89.1925 248° West 400 460 36,000  Level Houston Center
Mon 03:01:43 PM 30.3964 -89.3128 248° West 404 465 36,000  Level Houston Center
Mon 03:02:45 PM 30.3458 -89.4556 248° West 399 459 36,000  Level Houston Center
Mon 03:03:47 PM 30.3042 -89.5747 248° West 398 458 36,000  Level Houston Center
Mon 03:04:49 PM 30.2603 -89.6953 247° West 399 459 36,000  Level Houston Center
Mon 03:05:51 PM 30.2167 -89.8183 248° West 402 463 36,000  Level Houston Center
Mon 03:06:53 PM 30.1756 -89.9381 248° West 397 457 36,000  Level Houston Center
Mon 03:07:55 PM 30.1339 -90.0547 248° West 391 450 36,000  Level Houston Center
Mon 03:08:57 PM 30.0919 -90.1717 248° West 392 451 36,000  Level Houston Center
Mon 03:09:59 PM 30.0508 -90.2894 248° West 394 453 36,000  Level Houston Center
Mon 03:11:02 PM 29.9994 -90.4281 247° West 393 452 36,000  Level Houston Center
Mon 03:12:04 PM 29.9578 -90.5450 248° West 393 452 36,000  Level Houston Center
Mon 03:13:06 PM 29.9153 -90.6603 247° West 393 452 36,000  Level Houston Center
Mon 03:14:08 PM 29.8733 -90.7767 247° West 393 452 36,000  Level Houston Center
Mon 03:15:10 PM 29.8319 -90.8925 248° West 393 452 36,000  Level Houston Center
Mon 03:16:12 PM 29.7889 -91.0086 247° West 395 455 36,000  Level Houston Center
Mon 03:17:14 PM 29.7375 -91.1475 247° West 393 452 36,000  Level Houston Center
Mon 03:18:17 PM 29.6950 -91.2636 247° West 394 453 36,000  Level Houston Center
Mon 03:19:19 PM 29.6656 -91.3833 254° West 392 451 36,000  Level Houston Center
Mon 03:20:21 PM 29.6439 -91.5017 258° West 381 438 36,000  Level Houston Center
Mon 03:21:23 PM 29.6208 -91.6211 258° West 383 441 36,000  Level Houston Center
Mon 03:22:25 PM 29.5958 -91.7453 257° West 383 441 36,000  Level Houston Center
Mon 03:23:27 PM 29.5728 -91.8639 257° West 382 440 36,000  Level Houston Center
Mon 03:24:29 PM 29.5456 -92.0039 257° West 377 434 36,000  Level Houston Center
Mon 03:25:31 PM 29.5228 -92.1228 258° West 380 437 36,000  Level Houston Center
Mon 03:26:34 PM 29.5003 -92.2392 258° West 374 430 36,000  Level Houston Center
Mon 03:27:36 PM 29.4764 -92.3578 257° West 379 436 36,000  Level Houston Center
Mon 03:28:38 PM 29.4586 -92.4756 260° West 375 432 36,000  Level Houston Center
Mon 03:29:40 PM 29.4633 -92.5936 273° West 371 427 36,000  Level Houston Center
Mon 03:30:42 PM 29.4700 -92.7347 273° West 370 426 36,000 -145 Level Houston Center
Mon 03:31:44 PM 29.4744 -92.8519 273° West 368 423 35,700 -484 Descending Houston Center
Mon 03:32:46 PM 29.4806 -92.9683 273° West 366 421 35,000 -1,008 Descending Houston Center
Mon 03:33:49 PM 29.4847 -93.0836 272° West 362 417 33,600 -1,632 Descending Houston Center
Mon 03:34:51 PM 29.4900 -93.2075 273° West 386 444 31,600 -1,984 Descending Houston Center
Mon 03:35:53 PM 29.4956 -93.3378 273° West 406 467 29,500 -2,323 Descending Houston Center
Mon 03:36:55 PM 29.5019 -93.4936 273° West 405 466 26,800 -2,419 Descending Houston Center
Mon 03:37:57 PM 29.5069 -93.6278 272° West 417 480 24,500 -2,226 Descending Houston Center
Mon 03:38:59 PM 29.5119 -93.7600 273° West 415 478 22,200 -2,177 Descending Houston Center
Mon 03:40:01 PM 29.5175 -93.8881 273° West 407 468 20,000 -2,032 Descending Houston Center
Mon 03:41:03 PM 29.5217 -94.0097 272° West 390 449 18,000 -2,077 Descending Houston Center
Mon 03:41:45 PM 29.5250 -94.1058 272° West 368 423 16,400 -1,905 Descending Houston Center
Mon 03:42:06 PM 29.5256 -94.1253 272° West 373 429 16,000 -1,807 Descending Houston Center
Mon 03:43:08 PM 29.5292 -94.2372 272° West 352 405 13,900 -1,952 Descending Houston Center
Mon 03:43:29 PM 29.5308 -94.2878 272° West 311 358 13,300 -871 Descending Houston Center
Mon 03:44:10 PM 29.5364 -94.3536 276° West 313 360 13,000 -350 Descending Houston Center
Mon 03:45:12 PM 29.5753 -94.4425 297° West 314 361 12,700 -629 Descending Houston Center
Mon 03:46:14 PM 29.6139 -94.5311 297° West 312 359 11,700 -1,015 Descending Houston Center
Mon 03:47:28 PM 29.6631 -94.6508 295° West 312 359 10,400 -968 Descending Houston Center
Mon 03:48:18 PM 29.6886 -94.7050 299° West 306 352 9,700 -986 Descending Houston Center
Mon 03:48:41 PM 29.7042 -94.7489 292° West 277 319 9,200 -1,143 Descending Houston Center
Mon 03:49:21 PM 29.7275 -94.7983 299° West 278 320 8,500 -983 Descending Houston Center
Mon 03:50:37 PM 29.7692 -94.8997 295° West 271 312 7,300 -919 Descending Houston Center
Mon 03:51:25 PM 29.7931 -94.9550 296° West 276 318 6,600 -985 Descending Houston Center
Mon 03:51:44 PM 29.8044 -94.9844 294° West 276 318 6,200 -581 Descending Houston Center
Mon 03:52:27 PM 29.8267 -95.0342 297° West 278 320 6,000 -114 Descending Houston Center
Mon 03:53:29 PM 29.8594 -95.1128 296° West 277 319 6,000  Level Houston Center
Mon 03:54:36 PM 29.8978 -95.2186 293° West 278 320 6,000  Level Houston Center
Mon 03:55:33 PM 29.9003 -95.2958 272° West 276 318 6,000  Level Houston Center
Mon 03:56:35 PM 29.9006 -95.3822 270° West 274 315 6,000 -96 Level Houston Center
Mon 03:57:38 PM 29.9008 -95.4686 270° West 272 313 5,800 -576 Descending Houston Center
Mon 03:58:40 PM 29.9008 -95.5519 270° West 264 304 4,800 -1,161 Descending Houston Center
Mon 03:59:42 PM 29.9308 -95.6200 297° West 237 273 3,400 -844 Descending Houston Center
Mon 04:00:48 PM 29.9639 -95.5531 60° Northeast 223 257 3,000 -393 Descending Houston Center
Mon 04:01:44 PM 29.9836 -95.4906 70° East 229 264 2,600 -700 Descending Houston Center
Mon 04:02:48 PM 29.9931 -95.4253 81° East 217 250 1,600 -1,000 Descending Houston Center
Mon 04:03:50 PM 29.9942 -95.3761 88° East 176 203 500 -1,065 Descending Houston Center

Login

Don't have an account? Register now (free) for customized features, flight alerts, and more!